createdAt,value
2023-12-15T00:00:27.250Z,64.21
2023-12-15T00:02:53.756Z,64.23
2023-12-15T00:05:20.280Z,64.25
2023-12-15T00:07:46.795Z,64.16
2023-12-15T00:10:13.560Z,64.06
2023-12-15T00:12:40.412Z,64.03
2023-12-15T00:15:07.879Z,64.32
2023-12-15T00:17:34.618Z,64.19
2023-12-15T00:20:01.476Z,64.26
2023-12-15T00:22:28.087Z,64.35
2023-12-15T00:24:54.686Z,64.33
2023-12-15T00:27:21.222Z,64.29
2023-12-15T00:29:47.752Z,64.23
2023-12-15T00:32:14.352Z,64.35
2023-12-15T00:34:40.966Z,64.44
2023-12-15T00:37:07.460Z,64.42
2023-12-15T00:39:37.555Z,64.58
2023-12-15T00:42:06.199Z,64.31
2023-12-15T00:44:34.694Z,64.41
2023-12-15T00:47:01.939Z,64.48
2023-12-15T00:49:28.896Z,64.61
2023-12-15T00:51:56.032Z,64.37
2023-12-15T00:54:22.554Z,64.43
2023-12-15T00:56:50.320Z,64.42
2023-12-15T00:59:17.508Z,64.58
2023-12-15T01:01:44.025Z,64.50
2023-12-15T01:04:10.563Z,64.52
2023-12-15T01:06:37.079Z,64.46
2023-12-15T01:09:04.306Z,64.69
2023-12-15T01:11:31.106Z,64.53
2023-12-15T01:13:57.754Z,64.67
2023-12-15T01:16:24.300Z,64.60
2023-12-15T01:18:50.964Z,64.65
2023-12-15T01:21:17.505Z,64.66
2023-12-15T01:23:44.117Z,64.76
2023-12-15T01:26:10.662Z,64.70
2023-12-15T01:28:37.331Z,64.67
2023-12-15T01:31:04.251Z,64.64
2023-12-15T01:33:31.293Z,64.61
2023-12-15T01:35:57.873Z,64.77
2023-12-15T01:38:24.580Z,64.70
2023-12-15T01:40:51.665Z,64.71
2023-12-15T01:43:18.357Z,64.74
2023-12-15T01:45:44.861Z,64.72
2023-12-15T01:48:12.059Z,64.65
2023-12-15T01:50:39.889Z,64.78
2023-12-15T01:53:06.608Z,64.75
2023-12-15T01:55:33.120Z,64.82
2023-12-15T01:57:59.662Z,64.79
2023-12-15T02:00:26.249Z,64.78
2023-12-15T02:02:52.765Z,64.76
2023-12-15T02:05:19.404Z,64.83
2023-12-15T02:07:46.005Z,64.88
2023-12-15T02:10:12.514Z,64.76
2023-12-15T02:12:38.989Z,64.81
2023-12-15T02:15:05.981Z,64.93
2023-12-15T02:17:32.577Z,64.79
2023-12-15T02:19:59.235Z,64.86
2023-12-15T02:22:27.846Z,64.89
2023-12-15T02:24:54.532Z,64.88
2023-12-15T02:27:21.077Z,65.01
2023-12-15T02:29:47.707Z,64.94
2023-12-15T02:32:14.293Z,65.10
2023-12-15T02:34:40.913Z,64.91
2023-12-15T02:37:07.543Z,64.99
2023-12-15T02:39:34.068Z,65.00
2023-12-15T02:42:00.696Z,64.89
2023-12-15T02:44:27.185Z,65.05
2023-12-15T02:46:53.754Z,64.93
2023-12-15T02:49:20.381Z,64.83
2023-12-15T02:51:46.945Z,64.98
2023-12-15T02:54:13.420Z,64.99
2023-12-15T02:56:39.961Z,64.97
2023-12-15T02:59:06.573Z,65.19
2023-12-15T03:01:33.257Z,65.02
2023-12-15T03:03:59.814Z,65.05
2023-12-15T03:06:26.353Z,65.22
2023-12-15T03:08:52.959Z,65.28
2023-12-15T03:11:19.580Z,65.08
2023-12-15T03:13:46.120Z,65.05
2023-12-15T03:16:13.345Z,65.08
2023-12-15T03:18:40.323Z,65.10
2023-12-15T03:21:07.115Z,65.11
2023-12-15T03:23:33.806Z,65.07
2023-12-15T03:26:00.394Z,65.09
2023-12-15T03:28:26.973Z,65.13
2023-12-15T03:30:53.723Z,65.14
2023-12-15T03:33:20.477Z,65.19
2023-12-15T03:35:46.995Z,65.11
2023-12-15T03:38:14.420Z,65.12
2023-12-15T03:40:40.908Z,64.99
2023-12-15T03:43:07.493Z,65.17
2023-12-15T03:45:34.039Z,65.15
2023-12-15T03:48:00.748Z,65.20
2023-12-15T03:50:27.357Z,65.17
2023-12-15T03:52:54.058Z,65.14
2023-12-15T03:55:20.681Z,65.26
2023-12-15T03:57:47.169Z,65.25
2023-12-15T04:00:14.015Z,65.18
2023-12-15T04:02:40.599Z,65.15
2023-12-15T04:05:08.330Z,65.22
2023-12-15T04:07:35.176Z,65.17
2023-12-15T04:10:01.868Z,65.20
2023-12-15T04:12:28.359Z,65.08
2023-12-15T04:14:54.894Z,65.18
2023-12-15T04:17:21.498Z,65.21
2023-12-15T04:19:48.112Z,65.26
2023-12-15T04:22:14.770Z,65.23
2023-12-15T04:24:44.239Z,65.27
2023-12-15T04:27:10.808Z,65.25
2023-12-15T04:29:37.470Z,65.16
2023-12-15T04:32:04.318Z,65.30
2023-12-15T04:34:30.873Z,65.17
2023-12-15T04:36:57.348Z,65.20
2023-12-15T04:39:23.852Z,65.11
2023-12-15T04:41:50.310Z,65.12
2023-12-15T04:44:16.883Z,65.26
2023-12-15T04:46:43.511Z,65.21
2023-12-15T04:49:10.070Z,65.25
2023-12-15T04:51:36.606Z,65.23
2023-12-15T04:54:03.184Z,65.29
2023-12-15T04:56:29.739Z,65.28
2023-12-15T04:58:56.312Z,65.24
2023-12-15T05:01:22.917Z,65.21
2023-12-15T05:03:49.413Z,65.31
2023-12-15T05:06:23.510Z,65.18
2023-12-15T05:08:54.146Z,65.24
2023-12-15T05:11:21.040Z,65.20
2023-12-15T05:13:47.711Z,65.23
2023-12-15T05:16:14.218Z,65.19
2023-12-15T05:18:40.948Z,65.31
2023-12-15T05:21:07.804Z,65.22
2023-12-15T05:23:34.465Z,65.28
2023-12-15T05:26:01.182Z,65.33
2023-12-15T05:28:27.689Z,65.28
2023-12-15T05:30:54.206Z,65.22
2023-12-15T05:33:20.985Z,65.30
2023-12-15T05:35:47.633Z,65.36
2023-12-15T05:38:14.206Z,65.33
2023-12-15T05:40:41.691Z,65.31
2023-12-15T05:43:08.227Z,65.33
2023-12-15T05:45:34.729Z,65.30
2023-12-15T05:48:01.323Z,65.37
2023-12-15T05:50:28.001Z,65.32
2023-12-15T05:52:54.563Z,65.29
2023-12-15T05:55:21.070Z,65.29
2023-12-15T05:57:47.588Z,65.32
2023-12-15T06:00:14.754Z,65.36
2023-12-15T06:02:41.877Z,65.27
2023-12-15T06:05:08.634Z,65.33
2023-12-15T06:07:35.577Z,65.43
2023-12-15T06:10:02.425Z,65.51
2023-12-15T06:12:28.942Z,65.29
2023-12-15T06:14:55.438Z,65.27
2023-12-15T06:17:21.956Z,65.32
2023-12-15T06:19:48.448Z,65.39
2023-12-15T06:22:14.927Z,65.20
2023-12-15T06:24:42.083Z,65.47
2023-12-15T06:27:08.567Z,65.36
2023-12-15T06:29:35.350Z,65.48
2023-12-15T06:32:02.125Z,65.36
2023-12-15T06:34:28.760Z,65.48
2023-12-15T06:36:55.351Z,65.38
2023-12-15T06:39:21.916Z,65.46
2023-12-15T06:41:48.735Z,65.47
2023-12-15T06:44:15.251Z,65.80
2023-12-15T06:46:41.782Z,66.24
2023-12-15T06:49:08.378Z,66.49
2023-12-15T06:51:34.921Z,66.23
2023-12-15T06:54:01.615Z,66.09
2023-12-15T06:56:28.239Z,66.32
2023-12-15T06:58:55.182Z,66.46
2023-12-15T07:01:22.560Z,66.48
2023-12-15T07:03:50.168Z,66.48
2023-12-15T07:06:18.659Z,66.42
2023-12-15T07:08:45.228Z,66.50
2023-12-15T07:11:11.802Z,66.47
2023-12-15T07:13:38.316Z,66.46
2023-12-15T07:16:05.547Z,66.29
2023-12-15T07:18:33.961Z,66.41
2023-12-15T07:21:00.563Z,66.33
2023-12-15T07:23:27.166Z,66.40
2023-12-15T07:25:53.720Z,66.37
2023-12-15T07:28:20.220Z,66.23
2023-12-15T07:30:46.992Z,66.64
2023-12-15T07:33:13.595Z,66.83
2023-12-15T07:35:40.264Z,67.23
2023-12-15T07:38:06.867Z,67.36
2023-12-15T07:40:33.654Z,67.47
2023-12-15T07:43:00.221Z,67.17
2023-12-15T07:45:26.815Z,67.13
2023-12-15T07:47:55.062Z,66.91
2023-12-15T07:50:21.920Z,66.96
2023-12-15T07:52:48.468Z,66.84
2023-12-15T07:55:15.300Z,66.67
2023-12-15T07:57:43.250Z,66.83
2023-12-15T08:00:12.276Z,66.68
2023-12-15T08:02:39.191Z,66.38
2023-12-15T08:05:06.699Z,66.69
2023-12-15T08:07:33.224Z,66.17
2023-12-15T08:09:59.739Z,65.71
2023-12-15T08:12:26.281Z,65.97
2023-12-15T08:14:52.765Z,65.91
2023-12-15T08:17:19.340Z,65.87
2023-12-15T08:19:46.159Z,66.24
2023-12-15T08:22:12.789Z,66.18
2023-12-15T08:24:39.322Z,66.21
2023-12-15T08:27:05.921Z,66.27
2023-12-15T08:29:32.548Z,66.50
2023-12-15T08:31:59.127Z,66.41
2023-12-15T08:34:27.390Z,66.51
2023-12-15T08:36:54.020Z,66.52
2023-12-15T08:39:21.058Z,66.48
2023-12-15T08:41:47.767Z,66.35
2023-12-15T08:44:24.024Z,65.99
2023-12-15T08:46:56.986Z,65.98
2023-12-15T08:49:24.174Z,66.16
2023-12-15T08:51:51.295Z,66.13
2023-12-15T08:54:18.199Z,66.06
2023-12-15T08:56:45.070Z,66.30
2023-12-15T08:59:11.652Z,66.15
2023-12-15T09:01:38.410Z,66.24
2023-12-15T09:04:05.207Z,66.39
2023-12-15T09:06:36.109Z,66.46
2023-12-15T09:09:06.168Z,66.44
2023-12-15T09:11:32.835Z,66.42
2023-12-15T09:14:01.582Z,66.15
2023-12-15T09:16:28.336Z,66.23
2023-12-15T09:18:55.093Z,66.07
2023-12-15T09:21:21.924Z,66.13
2023-12-15T09:23:48.584Z,66.10
2023-12-15T09:26:15.390Z,65.98
2023-12-15T09:28:41.937Z,66.04
2023-12-15T09:31:08.833Z,66.16
2023-12-15T09:33:35.452Z,66.14
2023-12-15T09:36:02.043Z,66.02
2023-12-15T09:38:28.916Z,66.09
2023-12-15T09:40:55.572Z,65.78
2023-12-15T09:43:22.206Z,66.08
2023-12-15T09:45:48.670Z,66.10
2023-12-15T09:48:18.348Z,65.99
2023-12-15T09:50:52.951Z,66.08
2023-12-15T09:53:20.679Z,66.08
2023-12-15T09:55:47.797Z,66.10
2023-12-15T09:58:14.395Z,65.84
2023-12-15T10:00:40.996Z,66.04
2023-12-15T10:03:07.502Z,66.18
2023-12-15T10:05:34.685Z,65.96
2023-12-15T10:08:01.758Z,65.99
2023-12-15T10:10:28.486Z,66.11
2023-12-15T10:12:57.284Z,66.14
2023-12-15T10:15:26.140Z,66.09
2023-12-15T10:17:55.534Z,66.21
2023-12-15T10:20:22.423Z,66.41
2023-12-15T10:22:48.965Z,66.18
2023-12-15T10:25:22.740Z,66.16
2023-12-15T10:27:51.018Z,66.28
2023-12-15T10:30:18.726Z,66.22
2023-12-15T10:32:45.867Z,66.19
2023-12-15T10:35:13.240Z,66.32
2023-12-15T10:37:40.495Z,66.24
2023-12-15T10:40:07.920Z,66.28
2023-12-15T10:42:35.426Z,66.29
2023-12-15T10:45:06.078Z,66.27
2023-12-15T10:47:36.134Z,66.31
2023-12-15T10:50:03.511Z,66.20
2023-12-15T10:52:34.721Z,66.31
2023-12-15T10:55:05.218Z,66.20
2023-12-15T10:57:34.534Z,66.32
2023-12-15T11:00:04.350Z,66.32
2023-12-15T11:02:32.997Z,66.35
2023-12-15T11:05:01.510Z,66.41
2023-12-15T11:07:30.923Z,66.41
2023-12-15T11:10:02.665Z,66.40
2023-12-15T11:12:32.509Z,66.95
2023-12-15T11:14:59.056Z,66.63
2023-12-15T11:17:26.065Z,66.56
2023-12-15T11:19:58.437Z,66.54
2023-12-15T11:22:25.053Z,66.35
2023-12-15T11:24:51.632Z,66.55
2023-12-15T11:27:18.189Z,66.59
2023-12-15T11:29:44.744Z,66.63
2023-12-15T11:32:31.215Z,67.02
2023-12-15T11:34:59.103Z,67.29
2023-12-15T11:37:27.162Z,67.42
2023-12-15T11:39:55.332Z,67.27
2023-12-15T11:42:24.522Z,67.42
2023-12-15T11:44:51.561Z,67.06
2023-12-15T11:47:18.209Z,67.20
2023-12-15T11:49:44.845Z,67.18
2023-12-15T11:52:15.353Z,67.50
2023-12-15T11:54:42.649Z,67.43
2023-12-15T11:57:09.260Z,67.18
2023-12-15T11:59:37.451Z,67.23
2023-12-15T12:02:06.446Z,67.23
2023-12-15T12:04:33.205Z,66.90
2023-12-15T12:07:00.359Z,67.02
2023-12-15T12:09:27.069Z,67.01
2023-12-15T12:11:56.934Z,66.92
2023-12-15T12:14:25.512Z,66.79
2023-12-15T12:16:53.117Z,66.56
2023-12-15T12:19:22.889Z,66.83
2023-12-15T12:21:53.923Z,66.78
2023-12-15T12:24:21.453Z,66.82
2023-12-15T12:26:51.622Z,66.78
2023-12-15T12:29:18.236Z,66.73
2023-12-15T12:31:44.727Z,66.92
2023-12-15T12:34:11.346Z,66.83
2023-12-15T12:36:37.867Z,66.76
2023-12-15T12:39:07.022Z,66.87
2023-12-15T12:41:33.661Z,66.83
2023-12-15T12:44:00.353Z,66.76
2023-12-15T12:46:26.980Z,66.72
2023-12-15T12:48:53.603Z,66.83
2023-12-15T12:51:20.109Z,66.76
2023-12-15T12:53:46.670Z,66.89
2023-12-15T12:56:13.709Z,66.77
2023-12-15T12:58:40.642Z,66.70
2023-12-15T13:01:07.345Z,66.66
2023-12-15T13:03:34.046Z,66.74
2023-12-15T13:06:00.900Z,66.75
2023-12-15T13:08:27.528Z,66.76
2023-12-15T13:10:54.065Z,66.65
2023-12-15T13:13:20.504Z,66.75
2023-12-15T13:15:46.977Z,66.49
2023-12-15T13:18:13.784Z,66.77
2023-12-15T13:20:41.085Z,66.74
2023-12-15T13:23:10.478Z,66.69
2023-12-15T13:25:37.419Z,66.65
2023-12-15T13:28:05.635Z,66.81
2023-12-15T13:30:32.432Z,66.66
2023-12-15T13:32:59.163Z,66.68
2023-12-15T13:35:25.688Z,66.62
2023-12-15T13:37:52.425Z,66.62
2023-12-15T13:40:19.759Z,66.71
2023-12-15T13:42:47.641Z,66.68
2023-12-15T13:45:14.310Z,66.64
2023-12-15T13:47:40.953Z,66.67
2023-12-15T13:50:07.846Z,66.55
2023-12-15T13:52:36.713Z,66.62
2023-12-15T13:55:04.336Z,66.58
2023-12-15T13:57:30.898Z,66.62
2023-12-15T13:59:57.429Z,66.62
2023-12-15T14:02:23.959Z,66.65
2023-12-15T14:04:50.468Z,66.53
2023-12-15T14:07:17.001Z,66.57
2023-12-15T14:09:43.611Z,66.68
2023-12-15T14:12:10.148Z,66.58
2023-12-15T14:14:36.675Z,66.60
2023-12-15T14:17:04.391Z,66.60
2023-12-15T14:19:31.444Z,66.59
2023-12-15T14:21:57.966Z,66.55
2023-12-15T14:24:24.502Z,66.67
2023-12-15T14:26:52.330Z,66.62
2023-12-15T14:29:19.265Z,66.70
2023-12-15T14:31:45.873Z,66.55
2023-12-15T14:34:12.522Z,66.53
2023-12-15T14:36:39.226Z,66.49
2023-12-15T14:39:07.478Z,66.49
2023-12-15T14:41:36.478Z,66.42
2023-12-15T14:44:05.095Z,66.42
2023-12-15T14:46:32.111Z,66.47
2023-12-15T14:48:59.001Z,66.41
2023-12-15T14:51:25.639Z,66.33
2023-12-15T14:53:52.257Z,66.22
2023-12-15T14:56:18.923Z,66.23
2023-12-15T14:58:45.738Z,66.28
2023-12-15T15:01:12.676Z,66.25
2023-12-15T15:03:39.212Z,66.36
2023-12-15T15:06:06.179Z,66.26
2023-12-15T15:08:33.466Z,66.14
2023-12-15T15:11:00.170Z,66.25
2023-12-15T15:13:27.009Z,66.22
2023-12-15T15:15:53.699Z,65.86
2023-12-15T15:18:22.050Z,65.92
2023-12-15T15:20:49.324Z,66.02
2023-12-15T15:23:16.049Z,65.95
2023-12-15T15:25:42.885Z,66.01
2023-12-15T15:28:09.601Z,66.25
2023-12-15T15:30:37.747Z,66.46
2023-12-15T15:33:04.501Z,66.47
2023-12-15T15:35:32.250Z,66.76
2023-12-15T15:37:59.005Z,66.75
2023-12-15T15:40:25.721Z,66.50
2023-12-15T15:42:52.777Z,66.20
2023-12-15T15:45:19.736Z,66.22
2023-12-15T15:47:46.629Z,66.35
2023-12-15T15:50:13.278Z,66.08
2023-12-15T15:52:39.854Z,65.92
2023-12-15T15:55:06.844Z,66.22
2023-12-15T15:57:33.313Z,66.07
2023-12-15T15:59:59.820Z,66.08
2023-12-15T16:02:26.595Z,65.84
2023-12-15T16:04:53.739Z,65.53
2023-12-15T16:07:20.798Z,65.35
2023-12-15T16:09:47.765Z,64.87
2023-12-15T16:12:15.013Z,64.59
2023-12-15T16:14:42.683Z,64.41
2023-12-15T16:17:09.595Z,64.26
2023-12-15T16:19:36.354Z,64.09
2023-12-15T16:22:03.907Z,64.05
2023-12-15T16:24:31.106Z,63.74
2023-12-15T16:26:58.296Z,63.66
2023-12-15T16:29:24.934Z,63.65
2023-12-15T16:31:54.107Z,63.58
2023-12-15T16:34:21.773Z,63.62
2023-12-15T16:36:48.556Z,63.46
2023-12-15T16:39:15.561Z,63.65
2023-12-15T16:41:42.414Z,63.78
2023-12-15T16:44:08.982Z,63.86
2023-12-15T16:46:35.490Z,63.73
2023-12-15T16:49:02.312Z,63.76
2023-12-15T16:51:37.048Z,63.65
2023-12-15T16:54:04.539Z,63.66
2023-12-15T16:56:31.206Z,63.49
2023-12-15T16:58:57.784Z,63.68
2023-12-15T17:01:25.776Z,63.68
2023-12-15T17:03:52.534Z,63.74
2023-12-15T17:06:19.296Z,63.73
2023-12-15T17:08:45.986Z,63.60
2023-12-15T17:11:13.422Z,63.98
2023-12-15T17:13:40.739Z,63.76
2023-12-15T17:16:14.189Z,63.65
2023-12-15T17:18:40.963Z,63.98
2023-12-15T17:21:13.270Z,63.69
2023-12-15T17:23:40.481Z,63.93
2023-12-15T17:26:07.072Z,63.76
2023-12-15T17:28:33.630Z,63.75
2023-12-15T17:31:00.398Z,64.11
2023-12-15T17:33:27.122Z,64.29
2023-12-15T17:35:53.707Z,64.12
2023-12-15T17:38:20.988Z,64.35
2023-12-15T17:40:47.690Z,64.14
2023-12-15T17:43:14.310Z,64.24
2023-12-15T17:45:41.235Z,64.32
2023-12-15T17:48:10.966Z,64.28
2023-12-15T17:50:38.843Z,64.34
2023-12-15T17:53:05.348Z,64.36
2023-12-15T17:55:33.982Z,64.28
2023-12-15T17:58:02.668Z,64.45
2023-12-15T18:00:29.306Z,64.33
2023-12-15T18:02:55.948Z,64.14
2023-12-15T18:05:22.508Z,64.22
2023-12-15T18:07:49.001Z,64.19
2023-12-15T18:10:20.264Z,64.39
2023-12-15T18:12:47.637Z,64.55
2023-12-15T18:15:14.614Z,64.31
2023-12-15T18:17:42.457Z,64.38
2023-12-15T18:20:11.476Z,64.15
2023-12-15T18:22:39.157Z,64.52
2023-12-15T18:25:07.072Z,64.12
2023-12-15T18:27:37.133Z,64.15
2023-12-15T18:30:04.386Z,64.17
2023-12-15T18:32:31.053Z,64.15
2023-12-15T18:34:57.761Z,64.53
2023-12-15T18:37:24.283Z,64.59
2023-12-15T18:39:54.516Z,64.71
2023-12-15T18:42:22.833Z,64.78
2023-12-15T18:44:49.452Z,64.85
2023-12-15T18:47:16.346Z,64.91
2023-12-15T18:49:43.093Z,65.25
2023-12-15T18:52:09.784Z,65.39
2023-12-15T18:54:36.454Z,65.14
2023-12-15T18:57:03.091Z,65.54
2023-12-15T18:59:32.078Z,65.27
2023-12-15T19:01:58.873Z,65.72
2023-12-15T19:04:25.545Z,65.46
2023-12-15T19:06:52.306Z,65.67
2023-12-15T19:09:18.808Z,65.76
2023-12-15T19:11:45.792Z,65.75
2023-12-15T19:14:15.014Z,65.74
2023-12-15T19:16:41.634Z,65.97
2023-12-15T19:19:10.215Z,65.88
2023-12-15T19:21:36.906Z,66.03
2023-12-15T19:24:04.826Z,66.18
2023-12-15T19:26:31.389Z,65.60
2023-12-15T19:28:58.809Z,65.51
2023-12-15T19:31:25.394Z,65.46
2023-12-15T19:33:56.010Z,65.73
2023-12-15T19:36:22.805Z,65.62
2023-12-15T19:38:49.557Z,65.44
2023-12-15T19:41:19.850Z,65.71
2023-12-15T19:43:47.441Z,65.77
2023-12-15T19:46:24.819Z,65.69
2023-12-15T19:48:52.688Z,65.73
2023-12-15T19:51:23.446Z,65.65
2023-12-15T19:53:50.951Z,65.68
2023-12-15T19:56:25.022Z,65.69
2023-12-15T19:58:52.417Z,65.74
2023-12-15T20:01:32.995Z,65.65
2023-12-15T20:04:01.066Z,65.84
2023-12-15T20:06:33.233Z,66.03
2023-12-15T20:09:00.929Z,65.76
2023-12-15T20:11:28.411Z,66.14
2023-12-15T20:13:55.133Z,66.07
2023-12-15T20:16:22.741Z,66.05
2023-12-15T20:18:49.534Z,66.15
2023-12-15T20:21:19.334Z,66.14
2023-12-15T20:23:45.900Z,65.80
2023-12-15T20:26:12.523Z,66.07
2023-12-15T20:28:42.252Z,66.21
2023-12-15T20:31:11.028Z,66.19
2023-12-15T20:33:37.714Z,66.16
2023-12-15T20:36:04.729Z,66.30
2023-12-15T20:38:31.305Z,66.43
2023-12-15T20:40:57.852Z,66.07
2023-12-15T20:43:25.262Z,66.27
2023-12-15T20:45:52.431Z,66.31
2023-12-15T20:48:21.669Z,66.27
2023-12-15T20:50:48.880Z,66.30
2023-12-15T20:53:15.439Z,66.24
2023-12-15T20:55:42.038Z,66.24
2023-12-15T20:58:08.549Z,66.58
2023-12-15T21:00:35.161Z,66.44
2023-12-15T21:03:02.134Z,66.46
2023-12-15T21:05:30.004Z,66.36
2023-12-15T21:07:56.609Z,66.54
2023-12-15T21:10:23.333Z,66.69
2023-12-15T21:12:49.896Z,66.46
2023-12-15T21:15:16.610Z,66.38
2023-12-15T21:17:43.464Z,66.37
2023-12-15T21:20:14.124Z,66.04
2023-12-15T21:22:41.728Z,66.20
2023-12-15T21:25:08.881Z,65.76
2023-12-15T21:27:35.767Z,65.72
2023-12-15T21:30:03.992Z,65.69
2023-12-15T21:32:30.639Z,65.81
2023-12-15T21:34:57.320Z,65.99
2023-12-15T21:37:24.265Z,65.67
2023-12-15T21:39:50.842Z,65.68
2023-12-15T21:42:17.997Z,65.55
2023-12-15T21:44:44.525Z,65.73
2023-12-15T21:47:11.042Z,65.86
2023-12-15T21:49:39.153Z,65.58
2023-12-15T21:52:07.135Z,65.64
2023-12-15T21:54:33.673Z,65.80
2023-12-15T21:57:00.225Z,65.76
2023-12-15T21:59:27.177Z,65.57
2023-12-15T22:01:54.370Z,65.78
2023-12-15T22:04:21.067Z,65.57
2023-12-15T22:06:47.630Z,65.59
2023-12-15T22:09:14.154Z,65.65
2023-12-15T22:11:40.949Z,65.71
2023-12-15T22:14:07.496Z,65.69
2023-12-15T22:16:35.861Z,65.79
2023-12-15T22:19:05.823Z,65.73
2023-12-15T22:21:36.220Z,65.67
2023-12-15T22:24:03.641Z,65.73
2023-12-15T22:26:30.145Z,65.74
2023-12-15T22:28:56.758Z,65.76
2023-12-15T22:31:23.486Z,65.84
2023-12-15T22:33:51.443Z,65.66
2023-12-15T22:36:22.844Z,65.67
2023-12-15T22:38:50.065Z,65.74
2023-12-15T22:41:17.064Z,65.78
2023-12-15T22:43:43.691Z,65.82
2023-12-15T22:46:10.289Z,65.63
2023-12-15T22:48:36.930Z,65.88
2023-12-15T22:51:04.337Z,65.83
2023-12-15T22:53:30.846Z,65.94
2023-12-15T22:55:57.357Z,65.81
2023-12-15T22:58:23.839Z,65.77
2023-12-15T23:00:50.390Z,65.93
2023-12-15T23:03:16.988Z,65.76
2023-12-15T23:05:45.089Z,65.76
2023-12-15T23:08:11.627Z,65.81
2023-12-15T23:10:38.149Z,65.94
2023-12-15T23:13:04.719Z,65.81
2023-12-15T23:15:31.248Z,65.96
2023-12-15T23:17:57.940Z,65.95
2023-12-15T23:20:24.413Z,65.93
2023-12-15T23:22:50.881Z,65.84
2023-12-15T23:25:17.552Z,65.79
2023-12-15T23:27:44.960Z,65.82
2023-12-15T23:30:12.321Z,65.84
2023-12-15T23:32:38.855Z,65.86
2023-12-15T23:35:06.030Z,65.80
2023-12-15T23:37:32.606Z,65.95
2023-12-15T23:39:59.163Z,65.88
2023-12-15T23:42:25.771Z,65.97
2023-12-15T23:44:52.277Z,65.97
2023-12-15T23:47:19.020Z,65.82
2023-12-15T23:49:46.317Z,65.94
2023-12-15T23:52:12.911Z,66.02
2023-12-15T23:54:43.924Z,65.94
2023-12-15T23:57:11.065Z,65.90
2023-12-15T23:59:38.605Z,65.94
